sensor_id;sensor_type;location;lat;lon;timestamp;pressure;altitude;pressure_sealevel;temperature;humidity
62600;BME280;48671;48.922;2.346;2023-04-19T00:02:16;101814.25;;;13.26;58.18
62600;BME280;48671;48.922;2.346;2023-04-19T00:04:42;101813.47;;;13.23;58.28
62600;BME280;48671;48.922;2.346;2023-04-19T00:07:09;101822.25;;;13.20;58.47
62600;BME280;48671;48.922;2.346;2023-04-19T00:09:35;101815.50;;;13.13;58.36
62600;BME280;48671;48.922;2.346;2023-04-19T00:12:00;101820.78;;;13.11;58.56
62600;BME280;48671;48.922;2.346;2023-04-19T00:14:26;101820.06;;;13.06;58.42
62600;BME280;48671;48.922;2.346;2023-04-19T00:16:51;101815.75;;;13.05;58.61
62600;BME280;48671;48.922;2.346;2023-04-19T00:19:16;101821.97;;;13.01;58.68
62600;BME280;48671;48.922;2.346;2023-04-19T00:21:42;101816.03;;;12.96;58.60
62600;BME280;48671;48.922;2.346;2023-04-19T00:24:07;101830.03;;;12.94;58.93
62600;BME280;48671;48.922;2.346;2023-04-19T00:26:32;101827.72;;;12.84;58.94
62600;BME280;48671;48.922;2.346;2023-04-19T00:28:58;101826.28;;;12.74;59.09
62600;BME280;48671;48.922;2.346;2023-04-19T00:31:23;101824.53;;;12.75;59.24
62600;BME280;48671;48.922;2.346;2023-04-19T00:33:48;101827.13;;;12.75;59.33
62600;BME280;48671;48.922;2.346;2023-04-19T00:36:14;101818.63;;;12.68;59.59
62600;BME280;48671;48.922;2.346;2023-04-19T00:38:39;101829.13;;;12.67;59.62
62600;BME280;48671;48.922;2.346;2023-04-19T00:41:04;101829.22;;;12.63;59.32
62600;BME280;48671;48.922;2.346;2023-04-19T00:43:30;101834.38;;;12.65;59.55
62600;BME280;48671;48.922;2.346;2023-04-19T00:45:55;101829.16;;;12.65;59.72
62600;BME280;48671;48.922;2.346;2023-04-19T00:48:21;101819.47;;;12.69;59.79
62600;BME280;48671;48.922;2.346;2023-04-19T00:50:46;101816.31;;;12.59;59.90
62600;BME280;48671;48.922;2.346;2023-04-19T00:53:11;101822.47;;;12.56;59.86
62600;BME280;48671;48.922;2.346;2023-04-19T00:55:38;101819.19;;;12.50;60.07
62600;BME280;48671;48.922;2.346;2023-04-19T00:58:05;101821.88;;;12.47;60.29
62600;BME280;48671;48.922;2.346;2023-04-19T01:00:30;101818.50;;;12.43;60.40
62600;BME280;48671;48.922;2.346;2023-04-19T01:02:56;101822.06;;;12.40;60.36
62600;BME280;48671;48.922;2.346;2023-04-19T01:05:22;101830.81;;;12.38;60.31
62600;BME280;48671;48.922;2.346;2023-04-19T01:07:47;101818.69;;;12.37;60.41
62600;BME280;48671;48.922;2.346;2023-04-19T01:10:13;101817.78;;;12.38;60.11
62600;BME280;48671;48.922;2.346;2023-04-19T01:12:38;101810.88;;;12.35;60.57
62600;BME280;48671;48.922;2.346;2023-04-19T01:15:04;101813.41;;;12.38;60.40
62600;BME280;48671;48.922;2.346;2023-04-19T01:17:31;101811.69;;;12.37;60.24
62600;BME280;48671;48.922;2.346;2023-04-19T01:20:00;101811.72;;;12.36;60.50
62600;BME280;48671;48.922;2.346;2023-04-19T01:22:26;101812.69;;;12.33;60.55
62600;BME280;48671;48.922;2.346;2023-04-19T01:24:52;101818.84;;;12.31;60.82
62600;BME280;48671;48.922;2.346;2023-04-19T01:27:17;101819.69;;;12.31;60.81
62600;BME280;48671;48.922;2.346;2023-04-19T01:29:44;101818.84;;;12.31;60.58
62600;BME280;48671;48.922;2.346;2023-04-19T01:32:09;101820.78;;;12.24;60.67
62600;BME280;48671;48.922;2.346;2023-04-19T01:34:34;101821.72;;;12.22;60.68
62600;BME280;48671;48.922;2.346;2023-04-19T01:37:00;101814.81;;;12.19;60.63
62600;BME280;48671;48.922;2.346;2023-04-19T01:39:25;101817.56;;;12.14;61.00
62600;BME280;48671;48.922;2.346;2023-04-19T01:41:51;101812.56;;;12.07;61.20
62600;BME280;48671;48.922;2.346;2023-04-19T01:44:16;101809.00;;;12.09;61.10
62600;BME280;48671;48.922;2.346;2023-04-19T01:46:42;101802.25;;;12.02;61.41
62600;BME280;48671;48.922;2.346;2023-04-19T01:49:08;101816.19;;;12.01;61.69
62600;BME280;48671;48.922;2.346;2023-04-19T01:51:33;101805.00;;;11.96;61.81
62600;BME280;48671;48.922;2.346;2023-04-19T01:53:59;101805.97;;;11.93;61.59
62600;BME280;48671;48.922;2.346;2023-04-19T01:56:25;101804.06;;;12.00;61.62
62600;BME280;48671;48.922;2.346;2023-04-19T01:58:51;101806.59;;;12.02;61.39
62600;BME280;48671;48.922;2.346;2023-04-19T02:01:16;101808.53;;;11.95;61.33
62600;BME280;48671;48.922;2.346;2023-04-19T02:03:41;101803.44;;;11.90;61.81
62600;BME280;48671;48.922;2.346;2023-04-19T02:06:10;101817.38;;;11.89;61.89
62600;BME280;48671;48.922;2.346;2023-04-19T02:08:37;101805.34;;;11.82;61.65
62600;BME280;48671;48.922;2.346;2023-04-19T02:11:06;101800.94;;;11.87;61.67
62600;BME280;48671;48.922;2.346;2023-04-19T02:13:32;101803.59;;;11.83;61.73
62600;BME280;48671;48.922;2.346;2023-04-19T02:15:58;101803.69;;;11.80;61.87
62600;BME280;48671;48.922;2.346;2023-04-19T02:18:25;101808.97;;;11.77;62.45
62600;BME280;48671;48.922;2.346;2023-04-19T02:20:50;101802.13;;;11.74;62.22
62600;BME280;48671;48.922;2.346;2023-04-19T02:23:16;101800.47;;;11.70;61.83
62600;BME280;48671;48.922;2.346;2023-04-19T02:25:41;101803.84;;;11.73;61.99
62600;BME280;48671;48.922;2.346;2023-04-19T02:28:06;101803.91;;;11.72;61.78
62600;BME280;48671;48.922;2.346;2023-04-19T02:30:32;101808.25;;;11.71;62.00
62600;BME280;48671;48.922;2.346;2023-04-19T02:32:57;101801.31;;;11.70;62.00
62600;BME280;48671;48.922;2.346;2023-04-19T02:35:23;101798.88;;;11.64;61.99
62600;BME280;48671;48.922;2.346;2023-04-19T02:37:48;101792.91;;;11.61;62.18
62600;BME280;48671;48.922;2.346;2023-04-19T02:40:13;101803.34;;;11.59;62.48
62600;BME280;48671;48.922;2.346;2023-04-19T02:42:38;101797.38;;;11.54;62.33
62600;BME280;48671;48.922;2.346;2023-04-19T02:45:04;101806.09;;;11.53;62.48
62600;BME280;48671;48.922;2.346;2023-04-19T02:47:30;101800.03;;;11.53;62.54
62600;BME280;48671;48.922;2.346;2023-04-19T02:49:55;101794.88;;;11.51;62.55
62600;BME280;48671;48.922;2.346;2023-04-19T02:52:20;101800.03;;;11.53;62.78
62600;BME280;48671;48.922;2.346;2023-04-19T02:54:47;101796.69;;;11.47;62.66
62600;BME280;48671;48.922;2.346;2023-04-19T02:57:12;101801.88;;;11.49;62.32
62600;BME280;48671;48.922;2.346;2023-04-19T02:59:37;101799.19;;;11.52;62.70
62600;BME280;48671;48.922;2.346;2023-04-19T03:02:03;101791.53;;;11.46;62.78
62600;BME280;48671;48.922;2.346;2023-04-19T03:04:28;101793.22;;;11.47;62.54
62600;BME280;48671;48.922;2.346;2023-04-19T03:06:55;101800.94;;;11.52;62.67
62600;BME280;48671;48.922;2.346;2023-04-19T03:09:20;101812.31;;;11.47;62.28
62600;BME280;48671;48.922;2.346;2023-04-19T03:11:46;101813.28;;;11.45;62.68
62600;BME280;48671;48.922;2.346;2023-04-19T03:14:11;101809.06;;;11.39;62.79
62600;BME280;48671;48.922;2.346;2023-04-19T03:16:36;101808.22;;;11.39;62.60
62600;BME280;48671;48.922;2.346;2023-04-19T03:19:02;101815.97;;;11.40;62.64
62600;BME280;48671;48.922;2.346;2023-04-19T03:21:27;101805.59;;;11.39;62.68
62600;BME280;48671;48.922;2.346;2023-04-19T03:23:54;101802.09;;;11.40;62.66
62600;BME280;48671;48.922;2.346;2023-04-19T03:26:19;101809.00;;;11.42;62.55
62600;BME280;48671;48.922;2.346;2023-04-19T03:28:44;101809.19;;;11.35;62.88
62600;BME280;48671;48.922;2.346;2023-04-19T03:31:10;101802.22;;;11.35;62.76
62600;BME280;48671;48.922;2.346;2023-04-19T03:33:35;101803.16;;;11.33;62.73
62600;BME280;48671;48.922;2.346;2023-04-19T03:36:00;101796.31;;;11.27;63.05
62600;BME280;48671;48.922;2.346;2023-04-19T03:38:25;101802.50;;;11.23;63.24
62600;BME280;48671;48.922;2.346;2023-04-19T03:40:51;101802.59;;;11.20;63.07
62600;BME280;48671;48.922;2.346;2023-04-19T03:43:16;101796.66;;;11.13;63.09
62600;BME280;48671;48.922;2.346;2023-04-19T03:45:41;101800.97;;;11.14;63.21
62600;BME280;48671;48.922;2.346;2023-04-19T03:48:07;101795.81;;;11.13;63.19
62600;BME280;48671;48.922;2.346;2023-04-19T03:50:32;101791.47;;;11.13;63.17
62600;BME280;48671;48.922;2.346;2023-04-19T03:52:57;101800.94;;;11.16;63.56
62600;BME280;48671;48.922;2.346;2023-04-19T03:55:23;101785.53;;;11.07;63.06
62600;BME280;48671;48.922;2.346;2023-04-19T03:57:48;101789.84;;;11.08;63.57
62600;BME280;48671;48.922;2.346;2023-04-19T04:00:14;101791.81;;;10.98;63.88
62600;BME280;48671;48.922;2.346;2023-04-19T04:02:39;101792.75;;;10.95;64.10
62600;BME280;48671;48.922;2.346;2023-04-19T04:05:05;101797.97;;;10.95;64.05
62600;BME280;48671;48.922;2.346;2023-04-19T04:07:31;101786.84;;;10.87;64.05
62600;BME280;48671;48.922;2.346;2023-04-19T04:09:56;101793.81;;;10.87;64.03
62600;BME280;48671;48.922;2.346;2023-04-19T04:12:21;101787.00;;;10.81;63.81
62600;BME280;48671;48.922;2.346;2023-04-19T04:14:47;101788.75;;;10.81;64.19
62600;BME280;48671;48.922;2.346;2023-04-19T04:17:12;101793.91;;;10.82;64.62
62600;BME280;48671;48.922;2.346;2023-04-19T04:19:37;101790.50;;;10.78;64.10
62600;BME280;48671;48.922;2.346;2023-04-19T04:22:03;101794.78;;;10.81;64.33
62600;BME280;48671;48.922;2.346;2023-04-19T04:24:28;101794.88;;;10.78;64.68
62600;BME280;48671;48.922;2.346;2023-04-19T04:26:55;101797.47;;;10.78;64.69
62600;BME280;48671;48.922;2.346;2023-04-19T04:29:22;101801.81;;;10.77;64.04
62600;BME280;48671;48.922;2.346;2023-04-19T04:31:47;101804.44;;;10.77;64.32
62600;BME280;48671;48.922;2.346;2023-04-19T04:34:12;101789.00;;;10.70;64.78
62600;BME280;48671;48.922;2.346;2023-04-19T04:36:38;101801.00;;;10.75;64.59
62600;BME280;48671;48.922;2.346;2023-04-19T04:39:03;101793.19;;;10.75;64.46
62600;BME280;48671;48.922;2.346;2023-04-19T04:41:30;101798.31;;;10.78;64.46
62600;BME280;48671;48.922;2.346;2023-04-19T04:43:56;101791.41;;;10.77;64.27
62600;BME280;48671;48.922;2.346;2023-04-19T04:46:23;101794.00;;;10.79;64.44
62600;BME280;48671;48.922;2.346;2023-04-19T04:48:48;101797.47;;;10.78;64.31
62600;BME280;48671;48.922;2.346;2023-04-19T04:51:13;101793.13;;;10.78;64.04
62600;BME280;48671;48.922;2.346;2023-04-19T04:53:39;101793.03;;;10.82;63.89
62600;BME280;48671;48.922;2.346;2023-04-19T04:56:04;101797.44;;;10.80;64.28
62600;BME280;48671;48.922;2.346;2023-04-19T04:58:29;101797.59;;;10.73;64.45
62600;BME280;48671;48.922;2.346;2023-04-19T05:00:55;101797.66;;;10.69;64.71
62600;BME280;48671;48.922;2.346;2023-04-19T05:03:20;101804.66;;;10.67;65.14
62600;BME280;48671;48.922;2.346;2023-04-19T05:05:45;101804.69;;;10.65;64.89
62600;BME280;48671;48.922;2.346;2023-04-19T05:08:11;101803.81;;;10.66;64.74
62600;BME280;48671;48.922;2.346;2023-04-19T05:10:36;101813.41;;;10.64;65.23
62600;BME280;48671;48.922;2.346;2023-04-19T05:13:01;101813.47;;;10.61;64.93
62600;BME280;48671;48.922;2.346;2023-04-19T05:15:27;101805.72;;;10.58;65.21
62600;BME280;48671;48.922;2.346;2023-04-19T05:17:52;101817.75;;;10.64;65.14
62600;BME280;48671;48.922;2.346;2023-04-19T05:20:17;101822.94;;;10.64;65.02
62600;BME280;48671;48.922;2.346;2023-04-19T05:22:43;101811.72;;;10.62;65.16
62600;BME280;48671;48.922;2.346;2023-04-19T05:25:09;101822.03;;;10.66;65.05
62600;BME280;48671;48.922;2.346;2023-04-19T05:27:34;101816.84;;;10.65;64.91
62600;BME280;48671;48.922;2.346;2023-04-19T05:30:00;101815.09;;;10.67;64.94
62600;BME280;48671;48.922;2.346;2023-04-19T05:32:25;101815.88;;;10.70;65.14
62600;BME280;48671;48.922;2.346;2023-04-19T05:34:51;101814.13;;;10.71;65.12
62600;BME280;48671;48.922;2.346;2023-04-19T05:37:16;101814.00;;;10.75;65.14
62600;BME280;48671;48.922;2.346;2023-04-19T05:39:42;101801.94;;;10.71;64.56
62600;BME280;48671;48.922;2.346;2023-04-19T05:42:07;101826.03;;;10.81;64.91
62600;BME280;48671;48.922;2.346;2023-04-19T05:44:32;101825.13;;;10.82;65.00
62600;BME280;48671;48.922;2.346;2023-04-19T05:46:58;101828.44;;;10.90;64.75
62600;BME280;48671;48.922;2.346;2023-04-19T05:49:23;101831.81;;;10.95;64.95
62600;BME280;48671;48.922;2.346;2023-04-19T05:51:48;101826.44;;;11.01;64.43
62600;BME280;48671;48.922;2.346;2023-04-19T05:54:14;101831.44;;;11.11;64.67
62600;BME280;48671;48.922;2.346;2023-04-19T05:56:39;101832.41;;;11.07;64.65
62600;BME280;48671;48.922;2.346;2023-04-19T05:59:05;101834.94;;;11.10;64.37
62600;BME280;48671;48.922;2.346;2023-04-19T06:01:31;101839.13;;;11.17;64.52
62600;BME280;48671;48.922;2.346;2023-04-19T06:03:56;101844.16;;;11.24;64.64
62600;BME280;48671;48.922;2.346;2023-04-19T06:06:21;101837.94;;;11.30;64.18
62600;BME280;48671;48.922;2.346;2023-04-19T06:08:47;101838.66;;;11.37;63.96
62600;BME280;48671;48.922;2.346;2023-04-19T06:11:13;101849.78;;;11.43;63.83
62600;BME280;48671;48.922;2.346;2023-04-19T06:13:38;101848.94;;;11.43;63.75
62600;BME280;48671;48.922;2.346;2023-04-19T06:16:04;101846.19;;;11.47;63.60
62600;BME280;48671;48.922;2.346;2023-04-19T06:18:30;101850.53;;;11.48;63.72
62600;BME280;48671;48.922;2.346;2023-04-19T06:20:55;101849.63;;;11.51;63.87
62600;BME280;48671;48.922;2.346;2023-04-19T06:23:21;101850.47;;;11.52;63.52
62600;BME280;48671;48.922;2.346;2023-04-19T06:25:46;101848.66;;;11.54;63.61
62600;BME280;48671;48.922;2.346;2023-04-19T06:28:13;101859.00;;;11.57;63.47
62600;BME280;48671;48.922;2.346;2023-04-19T06:30:38;101852.75;;;11.64;63.56
62600;BME280;48671;48.922;2.346;2023-04-19T06:33:03;101851.66;;;11.72;63.00
62600;BME280;48671;48.922;2.346;2023-04-19T06:35:28;101855.88;;;11.78;63.12
62600;BME280;48671;48.922;2.346;2023-04-19T06:37:54;101864.44;;;11.85;62.76
62600;BME280;48671;48.922;2.346;2023-04-19T06:40:19;101867.91;;;11.85;63.00
62600;BME280;48671;48.922;2.346;2023-04-19T06:42:45;101863.25;;;11.97;62.41
62600;BME280;48671;48.922;2.346;2023-04-19T06:45:10;101863.09;;;12.03;62.50
62600;BME280;48671;48.922;2.346;2023-04-19T06:47:35;101860.41;;;12.06;62.61
62600;BME280;48671;48.922;2.346;2023-04-19T06:50:01;101868.84;;;12.15;62.19
62600;BME280;48671;48.922;2.346;2023-04-19T06:52:27;101860.91;;;12.20;62.37
62600;BME280;48671;48.922;2.346;2023-04-19T06:54:53;101858.28;;;12.20;61.84
62600;BME280;48671;48.922;2.346;2023-04-19T06:57:18;101866.16;;;12.18;61.87
62600;BME280;48671;48.922;2.346;2023-04-19T06:59:43;101861.69;;;12.22;62.35
62600;BME280;48671;48.922;2.346;2023-04-19T07:02:09;101864.06;;;12.31;62.19
62600;BME280;48671;48.922;2.346;2023-04-19T07:04:35;101866.34;;;12.44;61.91
62600;BME280;48671;48.922;2.346;2023-04-19T07:07:01;101859.03;;;12.55;61.57
62600;BME280;48671;48.922;2.346;2023-04-19T07:09:27;101866.72;;;12.61;61.20
62600;BME280;48671;48.922;2.346;2023-04-19T07:11:52;101863.94;;;12.67;60.94
62600;BME280;48671;48.922;2.346;2023-04-19T07:14:17;101862.94;;;12.71;60.94
62600;BME280;48671;48.922;2.346;2023-04-19T07:16:46;101874.13;;;12.75;60.89
62600;BME280;48671;48.922;2.346;2023-04-19T07:19:12;101870.59;;;12.77;60.76
62600;BME280;48671;48.922;2.346;2023-04-19T07:21:38;101876.81;;;12.73;60.64
62600;BME280;48671;48.922;2.346;2023-04-19T07:24:05;101884.75;;;12.69;60.91
62600;BME280;48671;48.922;2.346;2023-04-19T07:26:31;101878.66;;;12.70;60.96
62600;BME280;48671;48.922;2.346;2023-04-19T07:28:56;101879.28;;;12.78;60.96
62600;BME280;48671;48.922;2.346;2023-04-19T07:31:22;101876.28;;;12.92;61.07
62600;BME280;48671;48.922;2.346;2023-04-19T07:33:49;101883.88;;;12.99;60.42
62600;BME280;48671;48.922;2.346;2023-04-19T07:36:14;101881.16;;;13.02;60.93
62600;BME280;48671;48.922;2.346;2023-04-19T07:38:39;101875.94;;;13.02;60.40
62600;BME280;48671;48.922;2.346;2023-04-19T07:41:05;101876.72;;;13.04;60.42
62600;BME280;48671;48.922;2.346;2023-04-19T07:43:30;101880.91;;;13.11;60.57
62600;BME280;48671;48.922;2.346;2023-04-19T07:45:55;101870.22;;;13.18;60.17
62600;BME280;48671;48.922;2.346;2023-04-19T07:48:21;101870.88;;;13.26;60.71
62600;BME280;48671;48.922;2.346;2023-04-19T07:50:46;101877.44;;;13.39;60.19
62600;BME280;48671;48.922;2.346;2023-04-19T07:53:11;101872.00;;;13.45;59.78
62600;BME280;48671;48.922;2.346;2023-04-19T07:55:36;101870.09;;;13.50;59.47
62600;BME280;48671;48.922;2.346;2023-04-19T07:58:02;101875.19;;;13.55;59.87
62600;BME280;48671;48.922;2.346;2023-04-19T08:00:27;101873.16;;;13.63;59.45
62600;BME280;48671;48.922;2.346;2023-04-19T08:02:54;101876.22;;;13.76;59.46
62600;BME280;48671;48.922;2.346;2023-04-19T08:05:21;101874.06;;;13.89;59.61
62600;BME280;48671;48.922;2.346;2023-04-19T08:07:47;101873.53;;;14.04;59.49
62600;BME280;48671;48.922;2.346;2023-04-19T08:10:14;101872.19;;;14.17;59.15
62600;BME280;48671;48.922;2.346;2023-04-19T08:12:39;101869.50;;;14.44;58.58
62600;BME280;48671;48.922;2.346;2023-04-19T08:15:06;101857.88;;;14.76;57.90
62600;BME280;48671;48.922;2.346;2023-04-19T08:17:33;101862.25;;;15.21;57.00
62600;BME280;48671;48.922;2.346;2023-04-19T08:19:58;101860.41;;;15.67;55.66
62600;BME280;48671;48.922;2.346;2023-04-19T08:22:23;101865.19;;;15.98;54.80
62600;BME280;48671;48.922;2.346;2023-04-19T08:24:49;101858.81;;;16.24;54.22
62600;BME280;48671;48.922;2.346;2023-04-19T08:27:19;101863.47;;;16.57;53.85
62600;BME280;48671;48.922;2.346;2023-04-19T08:29:44;101857.03;;;16.83;53.11
62600;BME280;48671;48.922;2.346;2023-04-19T08:32:11;101861.22;;;17.06;51.82
62600;BME280;48671;48.922;2.346;2023-04-19T08:34:38;101851.81;;;17.19;51.68
62600;BME280;48671;48.922;2.346;2023-04-19T08:37:04;101854.78;;;17.30;52.32
62600;BME280;48671;48.922;2.346;2023-04-19T08:39:30;101851.63;;;17.41;49.93
62600;BME280;48671;48.922;2.346;2023-04-19T08:42:04;101855.78;;;17.45;50.11
62600;BME280;48671;48.922;2.346;2023-04-19T08:44:31;101850.88;;;17.57;51.22
62600;BME280;48671;48.922;2.346;2023-04-19T08:47:00;101858.31;;;17.66;49.18
62600;BME280;48671;48.922;2.346;2023-04-19T08:49:29;101858.31;;;17.66;49.32
62600;BME280;48671;48.922;2.346;2023-04-19T08:51:58;101856.97;;;17.57;49.31
62600;BME280;48671;48.922;2.346;2023-04-19T08:54:28;101851.19;;;17.50;49.67
62600;BME280;48671;48.922;2.346;2023-04-19T08:56:53;101857.97;;;17.54;51.07
62600;BME280;48671;48.922;2.346;2023-04-19T08:59:19;101853.50;;;17.57;50.69
62600;BME280;48671;48.922;2.346;2023-04-19T09:01:45;101856.28;;;17.53;51.08
62600;BME280;48671;48.922;2.346;2023-04-19T09:04:10;101858.56;;;17.42;50.64
62600;BME280;48671;48.922;2.346;2023-04-19T09:06:36;101856.72;;;17.27;51.41
62600;BME280;48671;48.922;2.346;2023-04-19T09:09:21;101858.66;;;17.23;49.97
62600;BME280;48671;48.922;2.346;2023-04-19T09:11:47;101864.25;;;17.16;51.83
62600;BME280;48671;48.922;2.346;2023-04-19T09:14:15;101853.81;;;17.14;51.46
62600;BME280;48671;48.922;2.346;2023-04-19T09:16:41;101852.25;;;17.10;51.47
62600;BME280;48671;48.922;2.346;2023-04-19T09:19:07;101845.22;;;17.11;51.58
62600;BME280;48671;48.922;2.346;2023-04-19T09:21:34;101856.06;;;17.22;51.41
62600;BME280;48671;48.922;2.346;2023-04-19T09:24:00;101850.66;;;17.25;51.37
62600;BME280;48671;48.922;2.346;2023-04-19T09:26:26;101848.34;;;17.36;51.21
62600;BME280;48671;48.922;2.346;2023-04-19T09:29:05;101840.41;;;17.38;51.28
62600;BME280;48671;48.922;2.346;2023-04-19T09:31:34;101848.00;;;17.44;51.12
62600;BME280;48671;48.922;2.346;2023-04-19T09:34:14;101839.56;;;17.54;50.68
62600;BME280;48671;48.922;2.346;2023-04-19T09:36:39;101836.69;;;17.59;50.86
62600;BME280;48671;48.922;2.346;2023-04-19T09:39:05;101833.84;;;17.64;50.35
62600;BME280;48671;48.922;2.346;2023-04-19T09:41:31;101832.00;;;17.66;51.79
62600;BME280;48671;48.922;2.346;2023-04-19T09:44:11;101826.06;;;17.80;50.89
62600;BME280;48671;48.922;2.346;2023-04-19T09:46:40;101826.34;;;17.91;51.19
62600;BME280;48671;48.922;2.346;2023-04-19T09:51:41;101827.88;;;18.12;49.68
62600;BME280;48671;48.922;2.346;2023-04-19T09:54:09;101817.91;;;18.17;49.43
62600;BME280;48671;48.922;2.346;2023-04-19T09:56:35;101814.72;;;18.28;49.66
62600;BME280;48671;48.922;2.346;2023-04-19T09:59:05;101808.78;;;18.40;50.42
62600;BME280;48671;48.922;2.346;2023-04-19T10:01:44;101809.97;;;18.51;48.75
62600;BME280;48671;48.922;2.346;2023-04-19T10:04:14;101811.38;;;18.58;48.44
62600;BME280;48671;48.922;2.346;2023-04-19T10:06:49;101809.06;;;18.67;49.26
62600;BME280;48671;48.922;2.346;2023-04-19T10:09:16;101805.03;;;18.78;48.65
62600;BME280;48671;48.922;2.346;2023-04-19T10:11:47;101812.84;;;18.79;47.00
62600;BME280;48671;48.922;2.346;2023-04-19T10:14:14;101809.44;;;18.77;47.03
62600;BME280;48671;48.922;2.346;2023-04-19T10:16:40;101810.63;;;18.87;47.89
62600;BME280;48671;48.922;2.346;2023-04-19T10:19:08;101808.56;;;18.92;47.26
62600;BME280;48671;48.922;2.346;2023-04-19T10:21:35;101807.38;;;18.98;46.82
62600;BME280;48671;48.922;2.346;2023-04-19T10:24:01;101807.38;;;19.14;46.29
62600;BME280;48671;48.922;2.346;2023-04-19T10:26:28;101791.44;;;19.15;46.81
62600;BME280;48671;48.922;2.346;2023-04-19T10:28:54;101798.84;;;19.39;47.04
62600;BME280;48671;48.922;2.346;2023-04-19T10:31:25;101793.16;;;19.61;46.50
62600;BME280;48671;48.922;2.346;2023-04-19T10:33:51;101800.00;;;19.65;45.84
62600;BME280;48671;48.922;2.346;2023-04-19T10:36:16;101799.63;;;19.71;45.71
62600;BME280;48671;48.922;2.346;2023-04-19T10:38:47;101803.63;;;19.78;45.88
62600;BME280;48671;48.922;2.346;2023-04-19T10:41:13;101780.53;;;19.82;46.67
62600;BME280;48671;48.922;2.346;2023-04-19T10:43:42;101789.00;;;19.87;45.86
62600;BME280;48671;48.922;2.346;2023-04-19T10:48:34;101784.09;;;20.09;45.14
62600;BME280;48671;48.922;2.346;2023-04-19T10:56:57;101779.91;;;20.48;45.72
62600;BME280;48671;48.922;2.346;2023-04-19T10:59:23;101777.56;;;20.58;44.76
62600;BME280;48671;48.922;2.346;2023-04-19T11:01:56;101777.69;;;20.84;44.26
62600;BME280;48671;48.922;2.346;2023-04-19T11:07:01;101777.81;;;20.95;42.68
62600;BME280;48671;48.922;2.346;2023-04-19T11:09:28;101770.19;;;20.90;42.67
62600;BME280;48671;48.922;2.346;2023-04-19T11:12:06;101766.94;;;20.72;41.37
62600;BME280;48671;48.922;2.346;2023-04-19T11:14:38;101756.84;;;20.65;42.11
62600;BME280;48671;48.922;2.346;2023-04-19T11:17:14;101764.78;;;20.65;42.37
62600;BME280;48671;48.922;2.346;2023-04-19T11:19:44;101758.81;;;20.75;41.92
62600;BME280;48671;48.922;2.346;2023-04-19T11:22:16;101747.94;;;20.80;42.45
62600;BME280;48671;48.922;2.346;2023-04-19T11:24:44;101751.22;;;20.84;41.89
62600;BME280;48671;48.922;2.346;2023-04-19T11:27:11;101745.44;;;20.91;42.00
62600;BME280;48671;48.922;2.346;2023-04-19T11:29:37;101742.38;;;20.97;41.58
62600;BME280;48671;48.922;2.346;2023-04-19T11:32:03;101736.69;;;21.03;40.11
62600;BME280;48671;48.922;2.346;2023-04-19T11:34:28;101734.13;;;21.02;39.78
62600;BME280;48671;48.922;2.346;2023-04-19T11:36:54;101731.91;;;21.09;40.28
62600;BME280;48671;48.922;2.346;2023-04-19T11:39:19;101732.25;;;21.17;40.24
62600;BME280;48671;48.922;2.346;2023-04-19T11:41:46;101732.38;;;21.28;39.48
62600;BME280;48671;48.922;2.346;2023-04-19T11:44:18;101730.41;;;21.44;40.66
62600;BME280;48671;48.922;2.346;2023-04-19T11:46:57;101728.84;;;21.42;39.41
62600;BME280;48671;48.922;2.346;2023-04-19T11:49:31;101708.94;;;21.49;39.96
62600;BME280;48671;48.922;2.346;2023-04-19T11:52:01;101714.94;;;21.64;40.60
62600;BME280;48671;48.922;2.346;2023-04-19T11:54:27;101719.19;;;21.54;39.92
62600;BME280;48671;48.922;2.346;2023-04-19T11:57:03;101725.81;;;21.21;38.93
62600;BME280;48671;48.922;2.346;2023-04-19T11:59:32;101715.53;;;21.16;38.41
62600;BME280;48671;48.922;2.346;2023-04-19T12:02:09;101710.88;;;21.20;38.51
62600;BME280;48671;48.922;2.346;2023-04-19T12:04:35;101716.03;;;21.36;36.97
62600;BME280;48671;48.922;2.346;2023-04-19T12:07:01;101706.06;;;21.52;38.99
62600;BME280;48671;48.922;2.346;2023-04-19T12:09:27;101703.19;;;21.68;38.40
62600;BME280;48671;48.922;2.346;2023-04-19T12:11:52;101691.09;;;21.77;38.19
62600;BME280;48671;48.922;2.346;2023-04-19T12:14:20;101706.22;;;21.87;37.34
62600;BME280;48671;48.922;2.346;2023-04-19T12:17:09;101700.19;;;21.98;38.14
62600;BME280;48671;48.922;2.346;2023-04-19T12:19:43;101696.38;;;21.89;37.26
62600;BME280;48671;48.922;2.346;2023-04-19T12:22:13;101700.00;;;21.88;37.60
62600;BME280;48671;48.922;2.346;2023-04-19T12:24:39;101707.19;;;21.99;38.33
62600;BME280;48671;48.922;2.346;2023-04-19T12:27:05;101710.44;;;22.03;36.73
62600;BME280;48671;48.922;2.346;2023-04-19T12:29:31;101696.84;;;22.20;36.93
62600;BME280;48671;48.922;2.346;2023-04-19T12:31:58;101680.81;;;22.34;38.09
62600;BME280;48671;48.922;2.346;2023-04-19T12:34:23;101689.13;;;22.54;38.68
62600;BME280;48671;48.922;2.346;2023-04-19T12:36:49;101685.53;;;22.66;36.96
62600;BME280;48671;48.922;2.346;2023-04-19T12:39:14;101697.78;;;22.80;36.99
62600;BME280;48671;48.922;2.346;2023-04-19T12:41:40;101679.06;;;22.70;37.70
62600;BME280;48671;48.922;2.346;2023-04-19T12:44:05;101679.63;;;22.62;37.63
62600;BME280;48671;48.922;2.346;2023-04-19T12:46:30;101677.19;;;22.35;36.63
62600;BME280;48671;48.922;2.346;2023-04-19T12:48:56;101675.38;;;22.36;37.36
62600;BME280;48671;48.922;2.346;2023-04-19T12:51:21;101668.44;;;22.46;37.43
62600;BME280;48671;48.922;2.346;2023-04-19T12:53:47;101673.19;;;22.54;37.23
62600;BME280;48671;48.922;2.346;2023-04-19T12:56:13;101668.53;;;22.68;36.85
62600;BME280;48671;48.922;2.346;2023-04-19T12:58:40;101682.81;;;22.79;37.20
62600;BME280;48671;48.922;2.346;2023-04-19T13:01:05;101677.47;;;22.67;35.59